Terminal Aerodrome Forecast
Issued by NWS Knoxville/Tri Cities, TN

Current Version | Previous Version | Text Only | Print | Product List | Glossary On
Versions: 1 2 3 4 5 6 7 8 9 10 11 12 13 14 15 16 17 18 19 20 21 22 23 24 25 26 27 28 29 30 31 32 33 34 35 36 37 38
000
FTUS44 KMRX 302007 AAA
TAFCHA
TAF AMD
KCHA 302007Z 3020/3118 24006KT P6SM VCTS SCT050CB BKN150
      TEMPO 3020/3022 VRB10G20KT 4SM -TSRA BR BKN040CB
     FM310000 25002KT P6SM BKN250
     FM310700 00000KT 5SM BR SCT030 BKN250
      TEMPO 3109/3112 3SM BR SCT035
     FM311300 23002KT P6SM BKN200=

USA.gov is the U.S. government's official web portal to all federal, state and local government web resources and services.